sensor_id;sensor_type;location;lat;lon;timestamp;pressure;altitude;pressure_sealevel;temperature;humidity
64616;BME280;51027;42.162;24.754;2023-01-31T00:01:11;99253.16;;;2.66;65.77
64616;BME280;51027;42.162;24.754;2023-01-31T00:03:38;99258.25;;;2.73;64.50
64616;BME280;51027;42.162;24.754;2023-01-31T00:08:40;99269.25;;;2.92;64.14
64616;BME280;51027;42.162;24.754;2023-01-31T00:11:06;99257.13;;;2.91;63.79
64616;BME280;51027;42.162;24.754;2023-01-31T00:13:31;99255.41;;;2.92;63.89
64616;BME280;51027;42.162;24.754;2023-01-31T00:15:57;99275.22;;;3.00;63.79
64616;BME280;51027;42.162;24.754;2023-01-31T00:18:22;99272.56;;;3.03;63.85
64616;BME280;51027;42.162;24.754;2023-01-31T00:20:48;99269.97;;;3.02;63.77
64616;BME280;51027;42.162;24.754;2023-01-31T00:23:13;99275.06;;;3.09;63.83
64616;BME280;51027;42.162;24.754;2023-01-31T00:25:39;99269.81;;;3.12;63.79
64616;BME280;51027;42.162;24.754;2023-01-31T00:28:04;99261.28;;;3.03;63.73
64616;BME280;51027;42.162;24.754;2023-01-31T00:30:30;99253.44;;;3.04;63.58
64616;BME280;51027;42.162;24.754;2023-01-31T00:32:55;99267.28;;;3.08;63.17
64616;BME280;51027;42.162;24.754;2023-01-31T00:35:21;99267.16;;;3.15;62.78
64616;BME280;51027;42.162;24.754;2023-01-31T00:37:46;99266.25;;;3.16;62.58
64616;BME280;51027;42.162;24.754;2023-01-31T00:40:12;99258.56;;;3.10;63.00
64616;BME280;51027;42.162;24.754;2023-01-31T00:42:37;99234.34;;;3.05;63.39
64616;BME280;51027;42.162;24.754;2023-01-31T00:45:03;99259.25;;;3.22;63.57
64616;BME280;51027;42.162;24.754;2023-01-31T00:47:28;99214.59;;;2.94;64.20
64616;BME280;51027;42.162;24.754;2023-01-31T00:49:54;99239.50;;;3.10;64.79
64616;BME280;51027;42.162;24.754;2023-01-31T00:52:19;99262.00;;;3.12;64.91
64616;BME280;51027;42.162;24.754;2023-01-31T00:54:45;99226.13;;;2.79;65.74
64616;BME280;51027;42.162;24.754;2023-01-31T00:57:10;99263.81;;;3.09;65.17
64616;BME280;51027;42.162;24.754;2023-01-31T00:59:36;99228.59;;;2.88;65.58
64616;BME280;51027;42.162;24.754;2023-01-31T01:02:01;99244.75;;;3.08;64.64
64616;BME280;51027;42.162;24.754;2023-01-31T01:04:27;99182.00;;;2.73;64.16
64616;BME280;51027;42.162;24.754;2023-01-31T01:06:52;99241.16;;;3.14;64.06
64616;BME280;51027;42.162;24.754;2023-01-31T01:09:17;99260.09;;;3.22;64.48
64616;BME280;51027;42.162;24.754;2023-01-31T01:11:43;99260.88;;;3.29;64.44
64616;BME280;51027;42.162;24.754;2023-01-31T01:14:08;99250.50;;;3.26;64.48
64616;BME280;51027;42.162;24.754;2023-01-31T01:16:36;99252.19;;;3.30;64.35
64616;BME280;51027;42.162;24.754;2023-01-31T01:19:11;99250.34;;;3.35;64.17
64616;BME280;51027;42.162;24.754;2023-01-31T01:21:37;99263.88;;;3.55;64.29
64616;BME280;51027;42.162;24.754;2023-01-31T01:24:10;99239.00;;;3.39;64.19
64616;BME280;51027;42.162;24.754;2023-01-31T01:26:36;99258.06;;;3.41;63.94
64616;BME280;51027;42.162;24.754;2023-01-31T01:29:02;99263.75;;;3.63;63.89
64616;BME280;51027;42.162;24.754;2023-01-31T01:31:28;99236.25;;;3.48;63.64
64616;BME280;51027;42.162;24.754;2023-01-31T01:34:00;99248.22;;;3.57;63.99
64616;BME280;51027;42.162;24.754;2023-01-31T01:36:26;99261.31;;;3.54;64.65
64616;BME280;51027;42.162;24.754;2023-01-31T01:38:52;99251.69;;;3.59;65.25
64616;BME280;51027;42.162;24.754;2023-01-31T01:41:19;99255.75;;;3.72;65.31
64616;BME280;51027;42.162;24.754;2023-01-31T01:46:26;99217.00;;;3.55;66.15
64616;BME280;51027;42.162;24.754;2023-01-31T01:49:03;99236.81;;;3.64;67.61
64616;BME280;51027;42.162;24.754;2023-01-31T01:51:31;99244.81;;;3.53;68.39
64616;BME280;51027;42.162;24.754;2023-01-31T01:54:02;99240.28;;;3.64;68.66
64616;BME280;51027;42.162;24.754;2023-01-31T01:56:32;99235.00;;;3.67;68.82
64616;BME280;51027;42.162;24.754;2023-01-31T01:59:25;99220.63;;;3.46;69.12
64616;BME280;51027;42.162;24.754;2023-01-31T02:01:54;99226.72;;;3.45;69.44
64616;BME280;51027;42.162;24.754;2023-01-31T02:04:24;99228.22;;;3.60;69.14
64616;BME280;51027;42.162;24.754;2023-01-31T02:06:52;99228.94;;;3.68;69.25
64616;BME280;51027;42.162;24.754;2023-01-31T02:09:27;99223.84;;;3.62;69.23
64616;BME280;51027;42.162;24.754;2023-01-31T02:11:57;99205.69;;;3.58;69.48
64616;BME280;51027;42.162;24.754;2023-01-31T02:14:23;99196.00;;;3.64;68.91
64616;BME280;51027;42.162;24.754;2023-01-31T02:16:49;99207.97;;;3.74;69.34
64616;BME280;51027;42.162;24.754;2023-01-31T02:19:48;99207.03;;;3.79;68.77
64616;BME280;51027;42.162;24.754;2023-01-31T02:22:29;99177.75;;;3.66;68.74
64616;BME280;51027;42.162;24.754;2023-01-31T02:34:08;99210.09;;;3.99;68.19
64616;BME280;51027;42.162;24.754;2023-01-31T02:37:15;99201.44;;;3.97;68.42
64616;BME280;51027;42.162;24.754;2023-01-31T02:44:54;99205.59;;;4.05;67.29
64616;BME280;51027;42.162;24.754;2023-01-31T02:47:43;99203.03;;;4.04;67.01
64616;BME280;51027;42.162;24.754;2023-01-31T02:50:19;99204.63;;;4.11;66.71
64616;BME280;51027;42.162;24.754;2023-01-31T02:52:58;99206.16;;;4.21;65.95
64616;BME280;51027;42.162;24.754;2023-01-31T02:55:54;99198.22;;;4.26;65.14
64616;BME280;51027;42.162;24.754;2023-01-31T02:59:05;99209.22;;;4.40;64.01
64616;BME280;51027;42.162;24.754;2023-01-31T03:01:34;99175.00;;;4.15;63.95
64616;BME280;51027;42.162;24.754;2023-01-31T03:04:07;99211.72;;;4.45;64.10
64616;BME280;51027;42.162;24.754;2023-01-31T03:09:14;99200.44;;;4.44;62.98
64616;BME280;51027;42.162;24.754;2023-01-31T03:12:26;99190.59;;;4.55;63.66
64616;BME280;51027;42.162;24.754;2023-01-31T03:22:59;99200.16;;;4.56;61.90
64616;BME280;51027;42.162;24.754;2023-01-31T03:25:28;99202.72;;;4.58;60.90
64616;BME280;51027;42.162;24.754;2023-01-31T03:27:58;99196.81;;;4.51;60.11
64616;BME280;51027;42.162;24.754;2023-01-31T03:30:46;99181.56;;;4.33;59.09
64616;BME280;51027;42.162;24.754;2023-01-31T03:33:34;99198.72;;;4.43;59.41
64616;BME280;51027;42.162;24.754;2023-01-31T03:36:25;99206.78;;;4.32;59.99
64616;BME280;51027;42.162;24.754;2023-01-31T03:39:29;99211.19;;;4.29;60.71
64616;BME280;51027;42.162;24.754;2023-01-31T03:42:06;99194.09;;;4.16;61.39
64616;BME280;51027;42.162;24.754;2023-01-31T03:47:25;99205.50;;;4.12;61.71
64616;BME280;51027;42.162;24.754;2023-01-31T03:49:55;99213.53;;;4.01;61.59
64616;BME280;51027;42.162;24.754;2023-01-31T03:52:30;99210.13;;;3.96;61.38
64616;BME280;51027;42.162;24.754;2023-01-31T03:55:02;99180.22;;;3.73;61.32
64616;BME280;51027;42.162;24.754;2023-01-31T03:57:37;99213.69;;;3.93;60.23
64616;BME280;51027;42.162;24.754;2023-01-31T04:00:08;99188.06;;;3.72;60.28
64616;BME280;51027;42.162;24.754;2023-01-31T04:02:35;99219.09;;;3.83;59.15
64616;BME280;51027;42.162;24.754;2023-01-31T04:05:14;99208.56;;;3.87;59.19
64616;BME280;51027;42.162;24.754;2023-01-31T04:07:41;99207.91;;;3.79;58.96
64616;BME280;51027;42.162;24.754;2023-01-31T04:10:14;99225.19;;;3.82;58.36
64616;BME280;51027;42.162;24.754;2023-01-31T04:12:43;99221.91;;;3.72;58.33
64616;BME280;51027;42.162;24.754;2023-01-31T04:15:09;99236.69;;;3.71;58.07
64616;BME280;51027;42.162;24.754;2023-01-31T04:17:35;99224.69;;;3.63;57.78
64616;BME280;51027;42.162;24.754;2023-01-31T04:20:00;99248.94;;;3.65;58.66
64616;BME280;51027;42.162;24.754;2023-01-31T04:22:26;99253.38;;;3.61;58.95
64616;BME280;51027;42.162;24.754;2023-01-31T04:24:51;99231.88;;;3.50;59.68
64616;BME280;51027;42.162;24.754;2023-01-31T04:27:17;99230.19;;;3.47;59.86
64616;BME280;51027;42.162;24.754;2023-01-31T04:29:42;99241.50;;;3.45;59.76
64616;BME280;51027;42.162;24.754;2023-01-31T04:32:08;99239.63;;;3.53;59.58
64616;BME280;51027;42.162;24.754;2023-01-31T04:34:33;99257.06;;;3.48;59.77
64616;BME280;51027;42.162;24.754;2023-01-31T04:36:59;99241.66;;;3.37;60.04
64616;BME280;51027;42.162;24.754;2023-01-31T04:39:24;99268.38;;;3.45;60.47
64616;BME280;51027;42.162;24.754;2023-01-31T04:41:49;99262.53;;;3.33;60.68
64616;BME280;51027;42.162;24.754;2023-01-31T04:44:15;99261.75;;;3.28;61.38
64616;BME280;51027;42.162;24.754;2023-01-31T04:46:41;99260.91;;;3.26;61.87
64616;BME280;51027;42.162;24.754;2023-01-31T04:49:06;99275.59;;;3.30;62.14
64616;BME280;51027;42.162;24.754;2023-01-31T04:51:32;99285.28;;;3.22;62.70
64616;BME280;51027;42.162;24.754;2023-01-31T04:53:58;99287.03;;;3.21;63.01
64616;BME280;51027;42.162;24.754;2023-01-31T04:56:24;99275.91;;;3.11;63.74
64616;BME280;51027;42.162;24.754;2023-01-31T04:58:49;99274.19;;;3.10;64.33
64616;BME280;51027;42.162;24.754;2023-01-31T05:01:14;99292.34;;;3.13;64.17
64616;BME280;51027;42.162;24.754;2023-01-31T05:03:40;99285.38;;;3.14;64.54
64616;BME280;51027;42.162;24.754;2023-01-31T05:06:06;99277.59;;;3.14;64.53
64616;BME280;51027;42.162;24.754;2023-01-31T05:08:31;99268.94;;;3.12;64.58
64616;BME280;51027;42.162;24.754;2023-01-31T05:10:58;99240.63;;;2.94;64.51
64616;BME280;51027;42.162;24.754;2023-01-31T05:13:24;99265.72;;;2.96;64.45
64616;BME280;51027;42.162;24.754;2023-01-31T05:15:50;99289.88;;;3.04;64.49
64616;BME280;51027;42.162;24.754;2023-01-31T05:18:15;99286.47;;;3.01;64.80
64616;BME280;51027;42.162;24.754;2023-01-31T05:20:40;99297.88;;;2.92;65.20
64616;BME280;51027;42.162;24.754;2023-01-31T05:23:08;99275.53;;;2.79;65.55
64616;BME280;51027;42.162;24.754;2023-01-31T05:25:34;99279.94;;;2.74;66.22
64616;BME280;51027;42.162;24.754;2023-01-31T05:28:00;99287.56;;;2.84;66.78
64616;BME280;51027;42.162;24.754;2023-01-31T05:30:26;99291.03;;;2.86;66.57
64616;BME280;51027;42.162;24.754;2023-01-31T05:32:51;99295.41;;;2.83;67.16
64616;BME280;51027;42.162;24.754;2023-01-31T05:35:17;99304.03;;;2.85;67.35
64616;BME280;51027;42.162;24.754;2023-01-31T05:37:42;99275.59;;;2.74;67.53
64616;BME280;51027;42.162;24.754;2023-01-31T05:40:13;99316.19;;;2.83;67.69
64616;BME280;51027;42.162;24.754;2023-01-31T05:42:39;99308.41;;;2.83;67.40
64616;BME280;51027;42.162;24.754;2023-01-31T05:45:05;99301.56;;;2.76;67.23
64616;BME280;51027;42.162;24.754;2023-01-31T05:47:31;99282.53;;;2.74;67.27
64616;BME280;51027;42.162;24.754;2023-01-31T05:49:56;99255.81;;;2.63;66.76
64616;BME280;51027;42.162;24.754;2023-01-31T05:52:22;99288.66;;;2.70;66.48
64616;BME280;51027;42.162;24.754;2023-01-31T05:54:47;99292.91;;;2.74;66.64
64616;BME280;51027;42.162;24.754;2023-01-31T05:57:12;99296.34;;;2.76;66.67
64616;BME280;51027;42.162;24.754;2023-01-31T05:59:41;99285.25;;;2.66;67.58
64616;BME280;51027;42.162;24.754;2023-01-31T06:02:06;99312.84;;;2.76;67.93
64616;BME280;51027;42.162;24.754;2023-01-31T06:04:33;99303.56;;;2.58;67.80
64616;BME280;51027;42.162;24.754;2023-01-31T06:06:59;99325.84;;;2.75;68.16
64616;BME280;51027;42.162;24.754;2023-01-31T06:09:24;99338.78;;;2.81;68.15
64616;BME280;51027;42.162;24.754;2023-01-31T06:11:50;99343.03;;;2.85;67.97
64616;BME280;51027;42.162;24.754;2023-01-31T06:14:15;99331.75;;;2.86;67.78
64616;BME280;51027;42.162;24.754;2023-01-31T06:16:41;99328.34;;;2.82;67.96
64616;BME280;51027;42.162;24.754;2023-01-31T06:19:06;99352.56;;;2.86;68.05
64616;BME280;51027;42.162;24.754;2023-01-31T06:21:32;99344.78;;;2.84;68.37
64616;BME280;51027;42.162;24.754;2023-01-31T06:24:00;99316.44;;;2.68;68.46
64616;BME280;51027;42.162;24.754;2023-01-31T06:26:26;99356.91;;;2.87;68.36
64616;BME280;51027;42.162;24.754;2023-01-31T06:28:52;99357.63;;;2.98;68.26
64616;BME280;51027;42.162;24.754;2023-01-31T06:31:17;99341.16;;;2.95;67.58
64616;BME280;51027;42.162;24.754;2023-01-31T06:33:43;99360.00;;;3.12;67.25
64616;BME280;51027;42.162;24.754;2023-01-31T06:36:08;99363.97;;;3.37;66.82
64616;BME280;51027;42.162;24.754;2023-01-31T06:38:34;99361.75;;;3.67;65.87
64616;BME280;51027;42.162;24.754;2023-01-31T06:40:59;99359.31;;;3.58;65.70
64616;BME280;51027;42.162;24.754;2023-01-31T06:43:25;99330.06;;;3.42;65.30
64616;BME280;51027;42.162;24.754;2023-01-31T06:45:50;99367.28;;;3.49;65.45
64616;BME280;51027;42.162;24.754;2023-01-31T06:48:16;99286.72;;;3.39;64.34
64616;BME280;51027;42.162;24.754;2023-01-31T06:50:42;99365.66;;;3.92;64.23
64616;BME280;51027;42.162;24.754;2023-01-31T06:53:08;99358.38;;;4.11;63.74
64616;BME280;51027;42.162;24.754;2023-01-31T06:55:34;99367.28;;;3.98;64.40
64616;BME280;51027;42.162;24.754;2023-01-31T06:57:59;99378.56;;;4.00;64.80
64616;BME280;51027;42.162;24.754;2023-01-31T07:00:25;99360.47;;;3.91;65.44
64616;BME280;51027;42.162;24.754;2023-01-31T07:02:51;99359.03;;;3.73;65.95
64616;BME280;51027;42.162;24.754;2023-01-31T07:05:18;99388.16;;;3.96;65.88
64616;BME280;51027;42.162;24.754;2023-01-31T07:07:45;99362.19;;;3.92;66.21
64616;BME280;51027;42.162;24.754;2023-01-31T07:10:11;99391.25;;;4.17;66.04
64616;BME280;51027;42.162;24.754;2023-01-31T07:12:37;99376.72;;;4.05;65.68
64616;BME280;51027;42.162;24.754;2023-01-31T07:15:03;99372.59;;;3.93;66.20
64616;BME280;51027;42.162;24.754;2023-01-31T07:17:29;99389.69;;;4.08;66.61
64616;BME280;51027;42.162;24.754;2023-01-31T07:19:54;99391.44;;;4.08;66.87
64616;BME280;51027;42.162;24.754;2023-01-31T07:22:20;99406.31;;;4.02;67.26
64616;BME280;51027;42.162;24.754;2023-01-31T07:24:45;99340.91;;;3.68;67.29
64616;BME280;51027;42.162;24.754;2023-01-31T07:27:12;99397.63;;;4.02;67.68
64616;BME280;51027;42.162;24.754;2023-01-31T07:29:38;99414.69;;;4.20;67.59
64616;BME280;51027;42.162;24.754;2023-01-31T07:32:03;99425.84;;;4.26;67.73
64616;BME280;51027;42.162;24.754;2023-01-31T07:34:29;99411.22;;;4.18;67.78
64616;BME280;51027;42.162;24.754;2023-01-31T07:36:55;99416.28;;;4.27;67.51
64616;BME280;51027;42.162;24.754;2023-01-31T07:39:20;99417.81;;;4.37;67.37
64616;BME280;51027;42.162;24.754;2023-01-31T07:41:46;99415.69;;;4.57;66.85
64616;BME280;51027;42.162;24.754;2023-01-31T07:44:11;99427.88;;;4.57;66.47
64616;BME280;51027;42.162;24.754;2023-01-31T07:46:38;99431.47;;;4.51;66.70
64616;BME280;51027;42.162;24.754;2023-01-31T07:49:04;99420.06;;;4.57;66.38
64616;BME280;51027;42.162;24.754;2023-01-31T07:51:30;99425.03;;;4.69;65.95
64616;BME280;51027;42.162;24.754;2023-01-31T07:53:55;99422.50;;;4.66;65.80
64616;BME280;51027;42.162;24.754;2023-01-31T07:56:21;99416.38;;;4.67;65.48
64616;BME280;51027;42.162;24.754;2023-01-31T07:58:48;99410.34;;;4.65;64.73
64616;BME280;51027;42.162;24.754;2023-01-31T08:01:19;99438.03;;;4.72;64.73
64616;BME280;51027;42.162;24.754;2023-01-31T08:04:05;99417.94;;;4.76;63.68
64616;BME280;51027;42.162;24.754;2023-01-31T08:06:30;99409.19;;;4.78;63.02
64616;BME280;51027;42.162;24.754;2023-01-31T08:08:57;99429.81;;;4.92;62.83
64616;BME280;51027;42.162;24.754;2023-01-31T08:11:23;99441.97;;;4.93;63.07
64616;BME280;51027;42.162;24.754;2023-01-31T08:13:48;99430.56;;;4.97;62.75
64616;BME280;51027;42.162;24.754;2023-01-31T08:16:14;99432.47;;;4.90;63.33
64616;BME280;51027;42.162;24.754;2023-01-31T08:18:39;99435.03;;;4.92;63.15
64616;BME280;51027;42.162;24.754;2023-01-31T08:21:06;99445.16;;;5.06;62.87
64616;BME280;51027;42.162;24.754;2023-01-31T08:23:33;99428.38;;;5.17;62.59
64616;BME280;51027;42.162;24.754;2023-01-31T08:26:04;99444.81;;;5.23;64.37
64616;BME280;51027;42.162;24.754;2023-01-31T08:28:31;99437.78;;;5.26;63.54
64616;BME280;51027;42.162;24.754;2023-01-31T08:30:56;99456.59;;;5.40;62.87
64616;BME280;51027;42.162;24.754;2023-01-31T08:33:21;99454.22;;;5.30;62.67
64616;BME280;51027;42.162;24.754;2023-01-31T08:35:47;99444.00;;;5.19;63.00
64616;BME280;51027;42.162;24.754;2023-01-31T08:38:12;99443.03;;;5.25;63.16
64616;BME280;51027;42.162;24.754;2023-01-31T08:40:38;99452.63;;;5.24;63.08
64616;BME280;51027;42.162;24.754;2023-01-31T08:43:12;99455.66;;;5.44;62.78
64616;BME280;51027;42.162;24.754;2023-01-31T08:45:39;99452.94;;;5.49;62.05
64616;BME280;51027;42.162;24.754;2023-01-31T08:48:04;99461.13;;;5.71;61.35
64616;BME280;51027;42.162;24.754;2023-01-31T08:50:31;99462.03;;;5.70;60.46
64616;BME280;51027;42.162;24.754;2023-01-31T08:52:59;99449.16;;;5.61;60.33
64616;BME280;51027;42.162;24.754;2023-01-31T08:55:25;99454.72;;;6.21;59.15
64616;BME280;51027;42.162;24.754;2023-01-31T08:57:51;99444.19;;;6.57;58.23
64616;BME280;51027;42.162;24.754;2023-01-31T09:00:18;99453.81;;;6.87;56.72
64616;BME280;51027;42.162;24.754;2023-01-31T09:02:44;99464.06;;;8.36;53.09
64616;BME280;51027;42.162;24.754;2023-01-31T09:05:12;99452.22;;;7.13;54.60
64616;BME280;51027;42.162;24.754;2023-01-31T09:07:38;99451.97;;;6.60;56.54
64616;BME280;51027;42.162;24.754;2023-01-31T09:10:03;99461.84;;;7.98;53.68
64616;BME280;51027;42.162;24.754;2023-01-31T09:12:29;99428.91;;;12.16;42.78
64616;BME280;51027;42.162;24.754;2023-01-31T09:14:55;99418.00;;;13.40;39.51
64616;BME280;51027;42.162;24.754;2023-01-31T09:17:20;99451.84;;;14.73;36.19
64616;BME280;51027;42.162;24.754;2023-01-31T09:19:46;99451.91;;;17.17;32.55
64616;BME280;51027;42.162;24.754;2023-01-31T09:22:13;99467.94;;;16.37;34.81
64616;BME280;51027;42.162;24.754;2023-01-31T09:24:38;99462.91;;;11.30;41.02
64616;BME280;51027;42.162;24.754;2023-01-31T09:27:04;99450.59;;;14.34;36.80
64616;BME280;51027;42.162;24.754;2023-01-31T09:29:29;99454.44;;;12.33;41.10
64616;BME280;51027;42.162;24.754;2023-01-31T09:31:55;99465.22;;;11.56;41.62
64616;BME280;51027;42.162;24.754;2023-01-31T09:34:20;99441.88;;;14.32;36.44
64616;BME280;51027;42.162;24.754;2023-01-31T09:36:47;99451.28;;;12.94;38.18
64616;BME280;51027;42.162;24.754;2023-01-31T09:39:13;99436.16;;;11.00;41.63
64616;BME280;51027;42.162;24.754;2023-01-31T09:41:54;99449.91;;;10.26;42.59
64616;BME280;51027;42.162;24.754;2023-01-31T09:44:25;99445.50;;;12.70;39.50
64616;BME280;51027;42.162;24.754;2023-01-31T09:47:08;99445.22;;;16.59;32.99
64616;BME280;51027;42.162;24.754;2023-01-31T09:49:46;99441.25;;;11.61;40.16
64616;BME280;51027;42.162;24.754;2023-01-31T09:52:12;99443.13;;;10.41;42.26
64616;BME280;51027;42.162;24.754;2023-01-31T09:54:39;99427.97;;;11.81;40.01
64616;BME280;51027;42.162;24.754;2023-01-31T10:07:58;99390.75;;;12.39;37.55
64616;BME280;51027;42.162;24.754;2023-01-31T10:10:36;99399.78;;;12.85;36.59
64616;BME280;51027;42.162;24.754;2023-01-31T10:13:09;99379.69;;;17.21;29.20
64616;BME280;51027;42.162;24.754;2023-01-31T10:15:56;99385.03;;;10.85;38.99
64616;BME280;51027;42.162;24.754;2023-01-31T10:18:34;99401.09;;;15.36;33.70
64616;BME280;51027;42.162;24.754;2023-01-31T10:21:29;99383.63;;;9.52;41.43
64616;BME280;51027;42.162;24.754;2023-01-31T10:24:04;99384.34;;;14.64;32.85
64616;BME280;51027;42.162;24.754;2023-01-31T10:26:36;99370.28;;;12.77;37.32
64616;BME280;51027;42.162;24.754;2023-01-31T10:31:50;99339.38;;;10.04;40.15
64616;BME280;51027;42.162;24.754;2023-01-31T10:34:24;99350.16;;;15.02;34.38
64616;BME280;51027;42.162;24.754;2023-01-31T10:39:44;99302.44;;;8.79;43.24
64616;BME280;51027;42.162;24.754;2023-01-31T10:42:40;99374.97;;;10.93;41.33
64616;BME280;51027;42.162;24.754;2023-01-31T10:47:34;99359.56;;;15.76;33.45
64616;BME280;51027;42.162;24.754;2023-01-31T10:50:10;99348.63;;;10.35;39.94
64616;BME280;51027;42.162;24.754;2023-01-31T10:53:02;99363.03;;;8.50;43.39
64616;BME280;51027;42.162;24.754;2023-01-31T10:58:16;99340.44;;;18.32;28.74
64616;BME280;51027;42.162;24.754;2023-01-31T11:00:43;99355.53;;;12.56;37.96
64616;BME280;51027;42.162;24.754;2023-01-31T11:03:12;99339.25;;;13.75;35.23
64616;BME280;51027;42.162;24.754;2023-01-31T11:05:53;99326.53;;;17.33;30.21
64616;BME280;51027;42.162;24.754;2023-01-31T11:11:09;99337.94;;;12.39;36.74
64616;BME280;51027;42.162;24.754;2023-01-31T11:13:36;99335.88;;;16.63;31.37
64616;BME280;51027;42.162;24.754;2023-01-31T11:16:08;99346.88;;;11.85;37.25
64616;BME280;51027;42.162;24.754;2023-01-31T11:18:42;99323.03;;;13.66;34.88
64616;BME280;51027;42.162;24.754;2023-01-31T11:21:09;99336.47;;;18.02;29.55
64616;BME280;51027;42.162;24.754;2023-01-31T11:23:43;99333.81;;;13.00;35.27
64616;BME280;51027;42.162;24.754;2023-01-31T11:26:09;99332.16;;;11.98;37.39
64616;BME280;51027;42.162;24.754;2023-01-31T11:28:39;99344.41;;;11.99;38.34
64616;BME280;51027;42.162;24.754;2023-01-31T11:31:20;99335.47;;;9.30;42.38
64616;BME280;51027;42.162;24.754;2023-01-31T11:36:21;99348.78;;;8.05;45.98
64616;BME280;51027;42.162;24.754;2023-01-31T11:38:50;99356.09;;;7.97;47.13
64616;BME280;51027;42.162;24.754;2023-01-31T11:41:31;99341.63;;;8.11;47.62
64616;BME280;51027;42.162;24.754;2023-01-31T11:44:26;99329.63;;;8.03;48.21
64616;BME280;51027;42.162;24.754;2023-01-31T11:47:03;99309.56;;;7.51;49.37
64616;BME280;51027;42.162;24.754;2023-01-31T11:49:36;99328.72;;;7.27;50.39
64616;BME280;51027;42.162;24.754;2023-01-31T11:54:44;99342.03;;;7.19;51.00
64616;BME280;51027;42.162;24.754;2023-01-31T11:57:16;99341.25;;;7.17;50.58
64616;BME280;51027;42.162;24.754;2023-01-31T11:59:48;99337.16;;;7.35;49.93
64616;BME280;51027;42.162;24.754;2023-01-31T12:02:35;99295.63;;;7.77;47.89
64616;BME280;51027;42.162;24.754;2023-01-31T12:05:13;99328.19;;;7.15;49.94
64616;BME280;51027;42.162;24.754;2023-01-31T12:07:47;99340.03;;;6.99;51.06
64616;BME280;51027;42.162;24.754;2023-01-31T12:10:35;99341.34;;;6.84;51.91
64616;BME280;51027;42.162;24.754;2023-01-31T12:13:14;99325.34;;;6.93;51.64
64616;BME280;51027;42.162;24.754;2023-01-31T12:26:44;99342.22;;;6.55;54.93
64616;BME280;51027;42.162;24.754;2023-01-31T12:34:33;99367.59;;;6.81;54.76
64616;BME280;51027;42.162;24.754;2023-01-31T12:37:26;99365.50;;;6.64;54.61
64616;BME280;51027;42.162;24.754;2023-01-31T12:42:35;99382.81;;;6.69;55.13
64616;BME280;51027;42.162;24.754;2023-01-31T12:45:26;99379.75;;;6.53;55.52
64616;BME280;51027;42.162;24.754;2023-01-31T12:48:27;99380.28;;;6.66;55.50
64616;BME280;51027;42.162;24.754;2023-01-31T13:01:41;99381.06;;;6.69;57.74
64616;BME280;51027;42.162;24.754;2023-01-31T13:06:59;99391.00;;;5.90;63.40
64616;BME280;51027;42.162;24.754;2023-01-31T13:09:31;99393.97;;;5.39;67.78
64616;BME280;51027;42.162;24.754;2023-01-31T13:12:13;99363.81;;;5.26;67.45
64616;BME280;51027;42.162;24.754;2023-01-31T13:14:44;99379.44;;;5.64;68.58
64616;BME280;51027;42.162;24.754;2023-01-31T13:17:17;99382.63;;;5.40;68.80
64616;BME280;51027;42.162;24.754;2023-01-31T13:19:53;99380.00;;;5.40;68.05
64616;BME280;51027;42.162;24.754;2023-01-31T13:24:56;99385.34;;;5.72;68.96
64616;BME280;51027;42.162;24.754;2023-01-31T13:27:28;99376.41;;;5.81;68.51
64616;BME280;51027;42.162;24.754;2023-01-31T13:30:00;99379.41;;;11.11;53.30
64616;BME280;51027;42.162;24.754;2023-01-31T13:32:45;99378.25;;;15.19;42.13
64616;BME280;51027;42.162;24.754;2023-01-31T13:35:33;99385.63;;;8.27;55.62
64616;BME280;51027;42.162;24.754;2023-01-31T13:38:02;99379.41;;;7.26;58.56
64616;BME280;51027;42.162;24.754;2023-01-31T13:40:35;99374.72;;;7.07;59.02
64616;BME280;51027;42.162;24.754;2023-01-31T13:43:11;99391.56;;;6.68;59.72
64616;BME280;51027;42.162;24.754;2023-01-31T13:45:42;99344.97;;;6.18;59.39
64616;BME280;51027;42.162;24.754;2023-01-31T13:53:46;99381.75;;;6.45;60.16
64616;BME280;51027;42.162;24.754;2023-01-31T13:56:20;99384.56;;;6.37;60.39
64616;BME280;51027;42.162;24.754;2023-01-31T13:58:47;99389.28;;;6.24;60.10
64616;BME280;51027;42.162;24.754;2023-01-31T14:01:17;99396.56;;;6.13;60.93
64616;BME280;51027;42.162;24.754;2023-01-31T14:09:22;99405.59;;;6.00;61.83
64616;BME280;51027;42.162;24.754;2023-01-31T14:11:48;99402.28;;;5.92;61.48
64616;BME280;51027;42.162;24.754;2023-01-31T14:16:53;99399.91;;;5.81;61.02
64616;BME280;51027;42.162;24.754;2023-01-31T14:32:35;99407.75;;;5.81;64.30
64616;BME280;51027;42.162;24.754;2023-01-31T14:43:29;99426.13;;;5.78;65.60
64616;BME280;51027;42.162;24.754;2023-01-31T14:57:12;99441.91;;;5.36;67.73
64616;BME280;51027;42.162;24.754;2023-01-31T15:02:37;99455.31;;;5.21;69.50
64616;BME280;51027;42.162;24.754;2023-01-31T15:05:05;99464.94;;;5.17;69.46
64616;BME280;51027;42.162;24.754;2023-01-31T15:07:33;99468.47;;;5.15;69.72
64616;BME280;51027;42.162;24.754;2023-01-31T15:09:58;99474.44;;;5.20;69.13
64616;BME280;51027;42.162;24.754;2023-01-31T15:12:55;99477.25;;;5.12;69.87
64616;BME280;51027;42.162;24.754;2023-01-31T15:15:37;99464.53;;;4.96;69.21
64616;BME280;51027;42.162;24.754;2023-01-31T15:18:17;99477.47;;;5.02;69.51
64616;BME280;51027;42.162;24.754;2023-01-31T15:20:54;99485.44;;;4.94;69.82
64616;BME280;51027;42.162;24.754;2023-01-31T15:23:27;99494.13;;;4.95;70.20
64616;BME280;51027;42.162;24.754;2023-01-31T15:25:54;99470.25;;;4.68;70.51
64616;BME280;51027;42.162;24.754;2023-01-31T15:28:24;99504.78;;;4.82;70.67
64616;BME280;51027;42.162;24.754;2023-01-31T15:30:53;99486.19;;;4.54;70.82
64616;BME280;51027;42.162;24.754;2023-01-31T15:33:58;99500.69;;;4.69;70.66
64616;BME280;51027;42.162;24.754;2023-01-31T15:36:32;99509.53;;;4.62;71.33
64616;BME280;51027;42.162;24.754;2023-01-31T15:39:05;99491.66;;;4.39;72.15
64616;BME280;51027;42.162;24.754;2023-01-31T15:41:41;99514.06;;;4.49;72.38
64616;BME280;51027;42.162;24.754;2023-01-31T15:44:16;99521.91;;;4.51;72.42